General Aviation Weather

Text Reports

Enter one or more of the following location identifiers separated by a space:

Zip Code, Four-Character ICAO or Three-Character IATA airport codes.

METAR - Aviation Routine Weather Report
KY63 - Elbow Lake, Minnesota
Updated at 8:57 PM GMT on January 27, 2015 (2:57 PM CST):
METAR KY63 272057Z AUTO 15015KT 10SM OVC004 00/M01 A3004 RMK AO2 T10051011
TAF - Terminal Area Forecast
KY63 - Elbow Lake, Minnesota
Updated at 8:57 PM GMT on January 27, 2015 (2:57 PM CST):
No TAF is currently available for this location.
Decoded:
No decoded TAF is available.
PIREP - Pilot Weather Report
KY63 - Elbow Lake, Minnesota
Updated at 8:57 PM GMT on January 27, 2015 (2:57 PM CST):
No PIREP is currently available for this location.
AIRMET - Airmens Meteorological Information
KY63 - Elbow Lake, Minnesota
Updated at 8:57 PM GMT on January 27, 2015 (2:57 PM CST):
No AIRMET is currently available for this location.
SIGMET - Significant Meteorological Information
KY63 - Elbow Lake, Minnesota
Updated at 8:57 PM GMT on January 27, 2015 (2:57 PM CST):
No SIGMET is currently available for this location.
NOTAM - Notice to Airmen
KY63 - Elbow Lake, Minnesota
Updated at 8:57 PM GMT on January 27, 2015 (2:57 PM CST):
No NOTAM is currently available for this location.
Forecast Area
KY63 - Elbow Lake, Minnesota
Updated at 8:57 PM GMT on January 27, 2015 (2:57 PM CST):
No NOTAM is currently available for this location.
Aviation Weather Maps